sensor_id;sensor_type;location;lat;lon;timestamp;pressure;altitude;pressure_sealevel;temperature;humidity
72612;BME280;60655;52.182;4.474;2023-04-06T00:01:10;101835.88;;;7.71;65.07
72612;BME280;60655;52.182;4.474;2023-04-06T00:03:11;101844.56;;;7.80;65.12
72612;BME280;60655;52.182;4.474;2023-04-06T00:05:12;101834.94;;;7.87;65.76
72612;BME280;60655;52.182;4.474;2023-04-06T00:07:13;101835.25;;;7.92;65.86
72612;BME280;60655;52.182;4.474;2023-04-06T00:09:14;101826.50;;;7.92;65.15
72612;BME280;60655;52.182;4.474;2023-04-06T00:11:15;101829.34;;;7.82;62.11
72612;BME280;60655;52.182;4.474;2023-04-06T00:13:17;101825.50;;;7.93;61.85
72612;BME280;60655;52.182;4.474;2023-04-06T00:15:18;101823.53;;;7.87;63.75
72612;BME280;60655;52.182;4.474;2023-04-06T00:17:19;101803.47;;;8.00;64.60
72612;BME280;60655;52.182;4.474;2023-04-06T00:19:20;101815.28;;;8.12;62.67
72612;BME280;60655;52.182;4.474;2023-04-06T00:21:21;101811.63;;;8.13;63.84
72612;BME280;60655;52.182;4.474;2023-04-06T00:23:21;101809.16;;;8.12;63.08
72612;BME280;60655;52.182;4.474;2023-04-06T00:25:22;101809.31;;;8.10;62.65
72612;BME280;60655;52.182;4.474;2023-04-06T00:27:23;101803.50;;;8.15;62.57
72612;BME280;60655;52.182;4.474;2023-04-06T00:29:24;101804.84;;;8.11;62.52
72612;BME280;60655;52.182;4.474;2023-04-06T00:31:25;101806.50;;;8.12;62.52
72612;BME280;60655;52.182;4.474;2023-04-06T00:33:26;101798.38;;;8.13;62.34
72612;BME280;60655;52.182;4.474;2023-04-06T00:35:27;101797.69;;;8.20;60.87
72612;BME280;60655;52.182;4.474;2023-04-06T00:37:28;101796.91;;;8.11;60.99
72612;BME280;60655;52.182;4.474;2023-04-06T00:39:29;101791.53;;;8.04;60.99
72612;BME280;60655;52.182;4.474;2023-04-06T00:41:30;101783.34;;;7.91;60.18
72612;BME280;60655;52.182;4.474;2023-04-06T00:43:31;101786.09;;;7.98;60.71
72612;BME280;60655;52.182;4.474;2023-04-06T00:45:32;101789.22;;;8.01;62.17
72612;BME280;60655;52.182;4.474;2023-04-06T00:47:34;101769.50;;;7.81;61.07
72612;BME280;60655;52.182;4.474;2023-04-06T00:49:35;101783.03;;;7.86;58.46
72612;BME280;60655;52.182;4.474;2023-04-06T00:51:36;101781.16;;;7.72;58.42
72612;BME280;60655;52.182;4.474;2023-04-06T00:53:37;101783.81;;;7.95;61.97
72612;BME280;60655;52.182;4.474;2023-04-06T00:55:38;101763.69;;;7.86;59.85
72612;BME280;60655;52.182;4.474;2023-04-06T00:57:39;101775.66;;;8.04;61.81
72612;BME280;60655;52.182;4.474;2023-04-06T00:59:40;101774.22;;;7.94;59.23
72612;BME280;60655;52.182;4.474;2023-04-06T01:01:41;101768.38;;;8.06;61.76
72612;BME280;60655;52.182;4.474;2023-04-06T01:03:42;101767.81;;;8.11;60.19
72612;BME280;60655;52.182;4.474;2023-04-06T01:05:46;101768.19;;;8.08;60.77
72612;BME280;60655;52.182;4.474;2023-04-06T01:07:46;101761.13;;;8.00;60.84
72612;BME280;60655;52.182;4.474;2023-04-06T01:09:47;101757.22;;;8.11;61.12
72612;BME280;60655;52.182;4.474;2023-04-06T01:11:48;101747.91;;;8.00;60.95
72612;BME280;60655;52.182;4.474;2023-04-06T01:13:49;101744.44;;;8.00;59.82
72612;BME280;60655;52.182;4.474;2023-04-06T01:15:50;101748.38;;;8.04;60.95
72612;BME280;60655;52.182;4.474;2023-04-06T01:17:51;101745.44;;;7.99;60.40
72612;BME280;60655;52.182;4.474;2023-04-06T01:19:52;101744.66;;;7.90;58.62
72612;BME280;60655;52.182;4.474;2023-04-06T01:21:54;101730.91;;;7.95;60.37
72612;BME280;60655;52.182;4.474;2023-04-06T01:23:55;101731.66;;;8.03;60.36
72612;BME280;60655;52.182;4.474;2023-04-06T01:25:56;101732.31;;;8.05;59.84
72612;BME280;60655;52.182;4.474;2023-04-06T01:27:57;101733.22;;;8.12;60.71
72612;BME280;60655;52.182;4.474;2023-04-06T01:29:58;101737.53;;;8.13;61.06
72612;BME280;60655;52.182;4.474;2023-04-06T01:31:59;101729.75;;;8.12;61.58
72612;BME280;60655;52.182;4.474;2023-04-06T01:34:01;101719.09;;;8.05;60.34
72612;BME280;60655;52.182;4.474;2023-04-06T01:36:02;101717.84;;;7.93;58.16
72612;BME280;60655;52.182;4.474;2023-04-06T01:38:03;101716.03;;;7.94;60.95
72612;BME280;60655;52.182;4.474;2023-04-06T01:40:04;101714.78;;;8.04;59.68
72612;BME280;60655;52.182;4.474;2023-04-06T01:42:05;101718.78;;;8.00;58.63
72612;BME280;60655;52.182;4.474;2023-04-06T01:44:07;101705.72;;;7.99;58.71
72612;BME280;60655;52.182;4.474;2023-04-06T01:46:07;101708.03;;;8.02;59.44
72612;BME280;60655;52.182;4.474;2023-04-06T01:48:08;101707.59;;;8.13;61.43
72612;BME280;60655;52.182;4.474;2023-04-06T01:50:09;101701.09;;;8.01;59.65
72612;BME280;60655;52.182;4.474;2023-04-06T01:52:10;101703.16;;;7.91;59.08
72612;BME280;60655;52.182;4.474;2023-04-06T01:54:11;101699.31;;;7.93;58.67
72612;BME280;60655;52.182;4.474;2023-04-06T01:56:12;101695.56;;;7.88;59.31
72612;BME280;60655;52.182;4.474;2023-04-06T01:58:13;101696.63;;;8.01;59.05
72612;BME280;60655;52.182;4.474;2023-04-06T02:00:15;101683.94;;;7.74;57.29
72612;BME280;60655;52.182;4.474;2023-04-06T02:02:16;101690.84;;;7.98;62.08
72612;BME280;60655;52.182;4.474;2023-04-06T02:04:17;101690.75;;;7.91;57.56
72612;BME280;60655;52.182;4.474;2023-04-06T02:06:18;101688.22;;;7.98;59.01
72612;BME280;60655;52.182;4.474;2023-04-06T02:08:19;101684.56;;;7.99;61.30
72612;BME280;60655;52.182;4.474;2023-04-06T02:10:19;101675.44;;;8.01;59.25
72612;BME280;60655;52.182;4.474;2023-04-06T02:12:21;101678.38;;;8.06;60.86
72612;BME280;60655;52.182;4.474;2023-04-06T02:14:25;101675.81;;;7.98;60.66
72612;BME280;60655;52.182;4.474;2023-04-06T02:16:26;101661.06;;;8.04;60.20
72612;BME280;60655;52.182;4.474;2023-04-06T02:18:26;101666.06;;;8.13;59.96
72612;BME280;60655;52.182;4.474;2023-04-06T02:20:28;101654.34;;;7.93;60.46
72612;BME280;60655;52.182;4.474;2023-04-06T02:22:29;101669.44;;;8.07;60.63
72612;BME280;60655;52.182;4.474;2023-04-06T02:24:30;101669.50;;;7.99;60.19
72612;BME280;60655;52.182;4.474;2023-04-06T02:26:31;101667.00;;;8.06;60.33
72612;BME280;60655;52.182;4.474;2023-04-06T02:28:32;101647.91;;;7.73;57.60
72612;BME280;60655;52.182;4.474;2023-04-06T02:30:33;101659.63;;;7.93;59.53
72612;BME280;60655;52.182;4.474;2023-04-06T02:32:34;101667.72;;;8.14;61.73
72612;BME280;60655;52.182;4.474;2023-04-06T02:34:34;101659.63;;;7.93;59.04
72612;BME280;60655;52.182;4.474;2023-04-06T02:36:35;101659.81;;;7.92;60.09
72612;BME280;60655;52.182;4.474;2023-04-06T02:38:36;101657.63;;;7.95;60.33
72612;BME280;60655;52.182;4.474;2023-04-06T02:40:37;101652.34;;;7.95;60.84
72612;BME280;60655;52.182;4.474;2023-04-06T02:42:38;101650.00;;;8.00;60.66
72612;BME280;60655;52.182;4.474;2023-04-06T02:44:39;101649.16;;;8.00;60.88
72612;BME280;60655;52.182;4.474;2023-04-06T02:46:40;101655.09;;;8.02;61.06
72612;BME280;60655;52.182;4.474;2023-04-06T02:48:40;101644.16;;;8.05;61.54
72612;BME280;60655;52.182;4.474;2023-04-06T02:50:41;101636.06;;;8.06;61.16
72612;BME280;60655;52.182;4.474;2023-04-06T02:52:42;101645.06;;;8.12;60.95
72612;BME280;60655;52.182;4.474;2023-04-06T02:54:43;101645.53;;;8.16;61.82
72612;BME280;60655;52.182;4.474;2023-04-06T02:56:44;101644.72;;;8.15;62.32
72612;BME280;60655;52.182;4.474;2023-04-06T02:58:45;101624.66;;;8.06;61.18
72612;BME280;60655;52.182;4.474;2023-04-06T03:00:46;101635.22;;;8.06;60.20
72612;BME280;60655;52.182;4.474;2023-04-06T03:02:46;101635.47;;;7.96;60.43
72612;BME280;60655;52.182;4.474;2023-04-06T03:04:47;101628.38;;;8.11;62.27
72612;BME280;60655;52.182;4.474;2023-04-06T03:06:48;101632.31;;;8.16;62.00
72612;BME280;60655;52.182;4.474;2023-04-06T03:08:49;101625.81;;;8.03;59.89
72612;BME280;60655;52.182;4.474;2023-04-06T03:10:50;101627.00;;;8.01;59.02
72612;BME280;60655;52.182;4.474;2023-04-06T03:12:51;101624.66;;;8.06;61.72
72612;BME280;60655;52.182;4.474;2023-04-06T03:14:52;101611.31;;;7.99;61.19
72612;BME280;60655;52.182;4.474;2023-04-06T03:16:53;101614.09;;;7.83;57.72
72612;BME280;60655;52.182;4.474;2023-04-06T03:18:54;101627.25;;;7.91;60.07
72612;BME280;60655;52.182;4.474;2023-04-06T03:20:55;101624.59;;;7.91;61.08
72612;BME280;60655;52.182;4.474;2023-04-06T03:22:56;101624.91;;;7.96;60.77
72612;BME280;60655;52.182;4.474;2023-04-06T03:24:57;101615.88;;;8.05;62.61
72612;BME280;60655;52.182;4.474;2023-04-06T03:26:58;101619.91;;;8.16;61.64
72612;BME280;60655;52.182;4.474;2023-04-06T03:28:59;101613.59;;;8.02;61.70
72612;BME280;60655;52.182;4.474;2023-04-06T03:30:59;101610.38;;;7.92;60.28
72612;BME280;60655;52.182;4.474;2023-04-06T03:33:00;101582.53;;;7.82;61.83
72612;BME280;60655;52.182;4.474;2023-04-06T03:35:01;101614.66;;;7.93;59.13
72612;BME280;60655;52.182;4.474;2023-04-06T03:37:02;101612.63;;;7.80;60.31
72612;BME280;60655;52.182;4.474;2023-04-06T03:39:03;101594.09;;;7.80;60.92
72612;BME280;60655;52.182;4.474;2023-04-06T03:41:04;101604.78;;;7.87;61.42
72612;BME280;60655;52.182;4.474;2023-04-06T03:43:05;101603.78;;;7.73;60.20
72612;BME280;60655;52.182;4.474;2023-04-06T03:45:06;101594.84;;;7.89;63.71
72612;BME280;60655;52.182;4.474;2023-04-06T03:47:08;101593.84;;;7.90;60.79
72612;BME280;60655;52.182;4.474;2023-04-06T03:49:09;101596.03;;;7.87;62.70
72612;BME280;60655;52.182;4.474;2023-04-06T03:51:10;101600.31;;;7.88;60.49
72612;BME280;60655;52.182;4.474;2023-04-06T03:53:11;101592.72;;;7.70;61.70
72612;BME280;60655;52.182;4.474;2023-04-06T03:55:12;101584.63;;;7.86;64.07
72612;BME280;60655;52.182;4.474;2023-04-06T03:57:13;101588.97;;;8.02;64.05
72612;BME280;60655;52.182;4.474;2023-04-06T03:59:14;101565.75;;;7.89;63.77
72612;BME280;60655;52.182;4.474;2023-04-06T04:01:17;101583.38;;;7.97;62.51
72612;BME280;60655;52.182;4.474;2023-04-06T04:03:18;101585.09;;;7.90;61.48
72612;BME280;60655;52.182;4.474;2023-04-06T04:05:20;101583.09;;;7.77;61.68
72612;BME280;60655;52.182;4.474;2023-04-06T04:07:25;101589.84;;;7.94;63.77
72612;BME280;60655;52.182;4.474;2023-04-06T04:09:26;101583.13;;;8.06;63.91
72612;BME280;60655;52.182;4.474;2023-04-06T04:11:27;101587.13;;;8.17;63.47
72612;BME280;60655;52.182;4.474;2023-04-06T04:13:28;101590.91;;;8.08;63.26
72612;BME280;60655;52.182;4.474;2023-04-06T04:15:29;101590.06;;;8.07;63.16
72612;BME280;60655;52.182;4.474;2023-04-06T04:17:29;101581.84;;;8.02;62.30
72612;BME280;60655;52.182;4.474;2023-04-06T04:19:31;101579.84;;;8.04;63.57
72612;BME280;60655;52.182;4.474;2023-04-06T04:21:31;101588.84;;;8.10;63.78
72612;BME280;60655;52.182;4.474;2023-04-06T04:23:32;101584.84;;;8.14;64.34
72612;BME280;60655;52.182;4.474;2023-04-06T04:25:33;101588.13;;;8.01;63.17
72612;BME280;60655;52.182;4.474;2023-04-06T04:27:34;101566.22;;;7.93;61.94
72612;BME280;60655;52.182;4.474;2023-04-06T04:29:35;101585.38;;;7.95;63.83
72612;BME280;60655;52.182;4.474;2023-04-06T04:31:36;101589.78;;;8.02;64.32
72612;BME280;60655;52.182;4.474;2023-04-06T04:33:37;101573.41;;;7.84;63.80
72612;BME280;60655;52.182;4.474;2023-04-06T04:35:38;101583.56;;;8.10;64.50
72612;BME280;60655;52.182;4.474;2023-04-06T04:37:40;101583.84;;;8.15;64.41
72612;BME280;60655;52.182;4.474;2023-04-06T04:39:42;101581.59;;;8.27;64.66
72612;BME280;60655;52.182;4.474;2023-04-06T04:41:42;101571.44;;;8.16;63.51
72612;BME280;60655;52.182;4.474;2023-04-06T04:43:43;101579.94;;;8.26;64.76
72612;BME280;60655;52.182;4.474;2023-04-06T04:45:44;101583.66;;;8.17;64.59
72612;BME280;60655;52.182;4.474;2023-04-06T04:47:45;101584.50;;;8.17;63.89
72612;BME280;60655;52.182;4.474;2023-04-06T04:49:46;101571.06;;;8.19;64.44
72612;BME280;60655;52.182;4.474;2023-04-06T04:51:47;101583.03;;;8.14;64.65
72612;BME280;60655;52.182;4.474;2023-04-06T04:53:48;101577.66;;;8.23;64.89
72612;BME280;60655;52.182;4.474;2023-04-06T04:55:49;101564.25;;;8.24;64.32
72612;BME280;60655;52.182;4.474;2023-04-06T04:57:49;101573.63;;;8.12;63.62
72612;BME280;60655;52.182;4.474;2023-04-06T04:59:50;101575.47;;;8.26;65.41
72612;BME280;60655;52.182;4.474;2023-04-06T05:01:51;101576.47;;;8.25;63.29
72612;BME280;60655;52.182;4.474;2023-04-06T05:03:52;101570.72;;;8.22;64.03
72612;BME280;60655;52.182;4.474;2023-04-06T05:05:53;101559.94;;;8.23;64.74
72612;BME280;60655;52.182;4.474;2023-04-06T05:07:54;101562.69;;;8.30;65.42
72612;BME280;60655;52.182;4.474;2023-04-06T05:09:55;101571.63;;;8.29;63.35
72612;BME280;60655;52.182;4.474;2023-04-06T05:11:56;101557.75;;;8.27;64.92
72612;BME280;60655;52.182;4.474;2023-04-06T05:13:57;101565.00;;;8.33;64.66
72612;BME280;60655;52.182;4.474;2023-04-06T05:15:58;101570.72;;;8.22;62.88
72612;BME280;60655;52.182;4.474;2023-04-06T05:17:59;101571.91;;;8.19;64.35
72612;BME280;60655;52.182;4.474;2023-04-06T05:20:00;101571.44;;;8.30;64.93
72612;BME280;60655;52.182;4.474;2023-04-06T05:22:01;101566.25;;;8.22;65.23
72612;BME280;60655;52.182;4.474;2023-04-06T05:24:02;101564.25;;;8.39;65.89
72612;BME280;60655;52.182;4.474;2023-04-06T05:26:03;101561.41;;;8.40;63.75
72612;BME280;60655;52.182;4.474;2023-04-06T05:28:05;101565.81;;;8.33;64.54
72612;BME280;60655;52.182;4.474;2023-04-06T05:30:07;101562.81;;;8.36;65.54
72612;BME280;60655;52.182;4.474;2023-04-06T05:32:08;101545.53;;;8.26;64.94
72612;BME280;60655;52.182;4.474;2023-04-06T05:34:09;101562.69;;;8.44;64.44
72612;BME280;60655;52.182;4.474;2023-04-06T05:36:10;101561.25;;;8.42;64.48
72612;BME280;60655;52.182;4.474;2023-04-06T05:38:11;101563.53;;;8.45;64.93
72612;BME280;60655;52.182;4.474;2023-04-06T05:40:12;101556.84;;;8.49;65.38
72612;BME280;60655;52.182;4.474;2023-04-06T05:42:13;101534.28;;;8.53;66.60
72612;BME280;60655;52.182;4.474;2023-04-06T05:44:14;101552.97;;;8.66;66.07
72612;BME280;60655;52.182;4.474;2023-04-06T05:46:15;101542.25;;;8.53;64.54
72612;BME280;60655;52.182;4.474;2023-04-06T05:48:15;101559.03;;;8.60;65.75
72612;BME280;60655;52.182;4.474;2023-04-06T05:50:16;101547.06;;;8.64;66.00
72612;BME280;60655;52.182;4.474;2023-04-06T05:52:17;101553.63;;;8.68;67.15
72612;BME280;60655;52.182;4.474;2023-04-06T05:54:18;101551.28;;;8.59;65.74
72612;BME280;60655;52.182;4.474;2023-04-06T05:56:19;101556.09;;;8.70;66.34
72612;BME280;60655;52.182;4.474;2023-04-06T05:58:21;101555.03;;;8.64;67.47
72612;BME280;60655;52.182;4.474;2023-04-06T06:00:21;101558.28;;;8.66;66.33
72612;BME280;60655;52.182;4.474;2023-04-06T06:02:22;101550.22;;;8.74;66.50
72612;BME280;60655;52.182;4.474;2023-04-06T06:04:24;101554.34;;;8.77;66.33
72612;BME280;60655;52.182;4.474;2023-04-06T06:06:25;101554.53;;;8.75;67.25
72612;BME280;60655;52.182;4.474;2023-04-06T06:08:26;101551.22;;;8.88;67.58
72612;BME280;60655;52.182;4.474;2023-04-06T06:10:27;101550.50;;;8.79;67.26
72612;BME280;60655;52.182;4.474;2023-04-06T06:12:28;101551.78;;;8.84;67.50
72612;BME280;60655;52.182;4.474;2023-04-06T06:14:29;101556.06;;;8.85;67.88
72612;BME280;60655;52.182;4.474;2023-04-06T06:16:30;101552.31;;;8.94;68.30
72612;BME280;60655;52.182;4.474;2023-04-06T06:18:31;101546.28;;;8.85;67.87
72612;BME280;60655;52.182;4.474;2023-04-06T06:20:32;101538.41;;;8.92;68.34
72612;BME280;60655;52.182;4.474;2023-04-06T06:22:33;101549.00;;;8.92;67.40
72612;BME280;60655;52.182;4.474;2023-04-06T06:24:35;101540.16;;;8.85;67.31
72612;BME280;60655;52.182;4.474;2023-04-06T06:26:36;101551.97;;;9.03;66.91
72612;BME280;60655;52.182;4.474;2023-04-06T06:28:37;101550.69;;;8.99;67.28
72612;BME280;60655;52.182;4.474;2023-04-06T06:30:38;101554.16;;;9.00;67.51
72612;BME280;60655;52.182;4.474;2023-04-06T06:32:39;101544.41;;;9.00;68.19
72612;BME280;60655;52.182;4.474;2023-04-06T06:34:41;101553.81;;;9.03;68.36
72612;BME280;60655;52.182;4.474;2023-04-06T06:36:42;101560.25;;;8.94;66.84
72612;BME280;60655;52.182;4.474;2023-04-06T06:38:44;101552.59;;;9.05;67.31
72612;BME280;60655;52.182;4.474;2023-04-06T06:40:45;101558.34;;;9.09;67.80
72612;BME280;60655;52.182;4.474;2023-04-06T06:42:46;101564.53;;;8.95;67.34
72612;BME280;60655;52.182;4.474;2023-04-06T06:44:48;101561.25;;;8.93;68.03
72612;BME280;60655;52.182;4.474;2023-04-06T06:46:48;101564.22;;;9.04;67.32
72612;BME280;60655;52.182;4.474;2023-04-06T06:48:49;101561.25;;;9.14;67.74
72612;BME280;60655;52.182;4.474;2023-04-06T06:50:50;101552.69;;;9.12;67.92
72612;BME280;60655;52.182;4.474;2023-04-06T06:52:51;101559.25;;;9.16;68.31
72612;BME280;60655;52.182;4.474;2023-04-06T06:54:52;101558.09;;;9.25;66.95
72612;BME280;60655;52.182;4.474;2023-04-06T06:56:53;101556.06;;;9.27;68.33
72612;BME280;60655;52.182;4.474;2023-04-06T06:58:55;101553.88;;;9.31;68.73
72612;BME280;60655;52.182;4.474;2023-04-06T07:00:58;101550.47;;;9.37;68.39
72612;BME280;60655;52.182;4.474;2023-04-06T07:02:59;101557.97;;;9.33;67.07
72612;BME280;60655;52.182;4.474;2023-04-06T07:05:01;101546.09;;;9.29;68.95
72612;BME280;60655;52.182;4.474;2023-04-06T07:07:02;101545.97;;;9.37;69.02
72612;BME280;60655;52.182;4.474;2023-04-06T07:09:04;101541.94;;;9.41;68.85
72612;BME280;60655;52.182;4.474;2023-04-06T07:11:05;101543.41;;;9.44;69.43
72612;BME280;60655;52.182;4.474;2023-04-06T07:13:06;101538.78;;;9.53;68.11
72612;BME280;60655;52.182;4.474;2023-04-06T07:15:07;101544.88;;;9.53;68.93
72612;BME280;60655;52.182;4.474;2023-04-06T07:17:08;101536.16;;;9.59;69.35
72612;BME280;60655;52.182;4.474;2023-04-06T07:19:10;101539.16;;;9.50;69.41
72612;BME280;60655;52.182;4.474;2023-04-06T07:21:11;101536.88;;;9.46;69.50
72612;BME280;60655;52.182;4.474;2023-04-06T07:23:12;101530.59;;;9.54;69.72
72612;BME280;60655;52.182;4.474;2023-04-06T07:25:13;101528.44;;;9.64;69.70
72612;BME280;60655;52.182;4.474;2023-04-06T07:27:14;101527.63;;;9.64;69.69
72612;BME280;60655;52.182;4.474;2023-04-06T07:29:17;101522.47;;;9.56;69.69
72612;BME280;60655;52.182;4.474;2023-04-06T07:31:20;101521.00;;;9.53;69.17
72612;BME280;60655;52.182;4.474;2023-04-06T07:33:21;101529.03;;;9.60;69.97
72612;BME280;60655;52.182;4.474;2023-04-06T07:35:26;101520.59;;;9.50;70.46
72612;BME280;60655;52.182;4.474;2023-04-06T07:37:27;101522.94;;;9.38;70.98
72612;BME280;60655;52.182;4.474;2023-04-06T07:39:28;101508.09;;;9.43;71.84
72612;BME280;60655;52.182;4.474;2023-04-06T07:41:29;101512.25;;;9.53;71.84
72612;BME280;60655;52.182;4.474;2023-04-06T07:43:30;101520.50;;;9.64;71.64
72612;BME280;60655;52.182;4.474;2023-04-06T07:45:31;101518.97;;;9.83;71.59
72612;BME280;60655;52.182;4.474;2023-04-06T07:47:32;101522.25;;;9.78;70.57
72612;BME280;60655;52.182;4.474;2023-04-06T07:49:33;101515.31;;;9.84;72.05
72612;BME280;60655;52.182;4.474;2023-04-06T07:51:38;101520.22;;;9.80;70.99
72612;BME280;60655;52.182;4.474;2023-04-06T07:53:40;101513.66;;;9.83;71.98
72612;BME280;60655;52.182;4.474;2023-04-06T07:55:40;101524.38;;;9.96;72.48
72612;BME280;60655;52.182;4.474;2023-04-06T07:57:41;101521.88;;;9.88;71.82
72612;BME280;60655;52.182;4.474;2023-04-06T07:59:42;101510.06;;;9.91;72.05
72612;BME280;60655;52.182;4.474;2023-04-06T08:01:43;101509.56;;;9.74;72.28
72612;BME280;60655;52.182;4.474;2023-04-06T08:03:44;101519.19;;;9.81;72.82
72612;BME280;60655;52.182;4.474;2023-04-06T08:05:46;101512.03;;;9.82;72.67
72612;BME280;60655;52.182;4.474;2023-04-06T08:07:46;101515.09;;;9.79;73.24
72612;BME280;60655;52.182;4.474;2023-04-06T08:09:47;101520.88;;;9.89;73.06
72612;BME280;60655;52.182;4.474;2023-04-06T08:11:48;101515.31;;;9.84;73.84
72612;BME280;60655;52.182;4.474;2023-04-06T08:13:49;101519.06;;;9.96;74.05
72612;BME280;60655;52.182;4.474;2023-04-06T08:15:50;101515.59;;;9.96;74.46
72612;BME280;60655;52.182;4.474;2023-04-06T08:17:52;101522.13;;;9.93;73.83
72612;BME280;60655;52.182;4.474;2023-04-06T08:19:53;101509.84;;;9.92;74.31
72612;BME280;60655;52.182;4.474;2023-04-06T08:21:54;101519.94;;;10.03;74.62
72612;BME280;60655;52.182;4.474;2023-04-06T08:23:55;101515.69;;;10.15;74.04
72612;BME280;60655;52.182;4.474;2023-04-06T08:25:56;101517.47;;;10.02;74.35
72612;BME280;60655;52.182;4.474;2023-04-06T08:27:57;101522.22;;;10.06;74.57
72612;BME280;60655;52.182;4.474;2023-04-06T08:29:58;101512.66;;;9.84;75.30
72612;BME280;60655;52.182;4.474;2023-04-06T08:31:59;101510.19;;;9.82;76.03
72612;BME280;60655;52.182;4.474;2023-04-06T08:34:00;101523.66;;;10.15;75.19
72612;BME280;60655;52.182;4.474;2023-04-06T08:36:13;101509.56;;;10.15;74.83
72612;BME280;60655;52.182;4.474;2023-04-06T08:38:14;101504.25;;;10.15;75.24
72612;BME280;60655;52.182;4.474;2023-04-06T08:40:15;101507.09;;;10.13;74.71
72612;BME280;60655;52.182;4.474;2023-04-06T08:42:20;101504.78;;;9.97;75.42
72612;BME280;60655;52.182;4.474;2023-04-06T08:44:21;101513.81;;;10.03;76.03
72612;BME280;60655;52.182;4.474;2023-04-06T08:46:23;101499.78;;;10.15;75.87
72612;BME280;60655;52.182;4.474;2023-04-06T08:48:30;101512.50;;;9.92;76.12
72612;BME280;60655;52.182;4.474;2023-04-06T08:50:32;101513.22;;;10.07;75.89
72612;BME280;60655;52.182;4.474;2023-04-06T08:52:34;101508.06;;;9.99;75.86
72612;BME280;60655;52.182;4.474;2023-04-06T08:54:35;101513.81;;;10.03;76.56
72612;BME280;60655;52.182;4.474;2023-04-06T08:56:37;101500.53;;;10.03;76.54
72612;BME280;60655;52.182;4.474;2023-04-06T08:58:39;101506.81;;;9.95;76.75
72612;BME280;60655;52.182;4.474;2023-04-06T09:00:41;101502.28;;;9.89;76.56
72612;BME280;60655;52.182;4.474;2023-04-06T09:02:43;101503.84;;;10.11;76.51
72612;BME280;60655;52.182;4.474;2023-04-06T09:04:47;101515.84;;;10.01;77.10
72612;BME280;60655;52.182;4.474;2023-04-06T09:06:48;101508.53;;;9.75;77.84
72612;BME280;60655;52.182;4.474;2023-04-06T09:08:50;101510.75;;;9.71;78.41
72612;BME280;60655;52.182;4.474;2023-04-06T09:10:52;101510.81;;;9.50;78.70
72612;BME280;60655;52.182;4.474;2023-04-06T09:13:05;101518.16;;;9.82;77.57
72612;BME280;60655;52.182;4.474;2023-04-06T09:15:18;101490.16;;;9.45;76.74
72612;BME280;60655;52.182;4.474;2023-04-06T09:17:23;101516.44;;;9.68;76.29
72612;BME280;60655;52.182;4.474;2023-04-06T09:19:24;101506.84;;;9.67;76.87
72612;BME280;60655;52.182;4.474;2023-04-06T09:21:25;101511.19;;;9.75;76.78
72612;BME280;60655;52.182;4.474;2023-04-06T09:23:27;101499.59;;;9.55;77.56
72612;BME280;60655;52.182;4.474;2023-04-06T09:25:28;101497.81;;;9.34;77.34
72612;BME280;60655;52.182;4.474;2023-04-06T09:27:38;101505.69;;;9.48;78.44
72612;BME280;60655;52.182;4.474;2023-04-06T09:29:40;101503.38;;;9.67;77.43
72612;BME280;60655;52.182;4.474;2023-04-06T09:31:41;101502.75;;;9.65;77.08
72612;BME280;60655;52.182;4.474;2023-04-06T09:33:44;101508.72;;;9.73;77.16
72612;BME280;60655;52.182;4.474;2023-04-06T09:35:49;101499.31;;;9.71;76.47
72612;BME280;60655;52.182;4.474;2023-04-06T09:37:51;101504.25;;;9.74;77.12
72612;BME280;60655;52.182;4.474;2023-04-06T09:40:03;101496.03;;;9.69;77.32
72612;BME280;60655;52.182;4.474;2023-04-06T09:42:04;101502.13;;;9.63;78.03
72612;BME280;60655;52.182;4.474;2023-04-06T09:44:10;101477.66;;;9.39;78.61
72612;BME280;60655;52.182;4.474;2023-04-06T09:46:11;101504.78;;;9.63;79.17
72612;BME280;60655;52.182;4.474;2023-04-06T09:48:13;101498.38;;;9.51;79.08
72612;BME280;60655;52.182;4.474;2023-04-06T09:50:14;101489.03;;;9.33;80.15
72612;BME280;60655;52.182;4.474;2023-04-06T09:52:17;101479.81;;;9.29;79.67
72612;BME280;60655;52.182;4.474;2023-04-06T09:54:21;101495.94;;;9.56;79.37
72612;BME280;60655;52.182;4.474;2023-04-06T09:56:24;101486.97;;;9.57;80.14
72612;BME280;60655;52.182;4.474;2023-04-06T09:58:33;101477.09;;;9.72;78.65
72612;BME280;60655;52.182;4.474;2023-04-06T10:00:43;101480.44;;;9.53;80.45
72612;BME280;60655;52.182;4.474;2023-04-06T10:07:18;101492.00;;;9.73;80.95
72612;BME280;60655;52.182;4.474;2023-04-06T10:09:22;101480.47;;;9.59;81.87
72612;BME280;60655;52.182;4.474;2023-04-06T10:11:26;101480.44;;;9.53;81.86
72612;BME280;60655;52.182;4.474;2023-04-06T10:13:27;101488.59;;;9.51;82.07
72612;BME280;60655;52.182;4.474;2023-04-06T10:15:28;101471.84;;;9.51;81.27
72612;BME280;60655;52.182;4.474;2023-04-06T10:17:30;101482.03;;;9.54;81.22
72612;BME280;60655;52.182;4.474;2023-04-06T10:19:41;101476.78;;;9.60;82.35
72612;BME280;60655;52.182;4.474;2023-04-06T10:21:48;101458.53;;;9.44;81.15
72612;BME280;60655;52.182;4.474;2023-04-06T10:24:02;101473.88;;;9.48;81.67
72612;BME280;60655;52.182;4.474;2023-04-06T10:26:13;101471.69;;;9.59;82.06
72612;BME280;60655;52.182;4.474;2023-04-06T10:28:14;101456.38;;;9.61;82.47
72612;BME280;60655;52.182;4.474;2023-04-06T10:30:15;101466.00;;;9.62;82.15
72612;BME280;60655;52.182;4.474;2023-04-06T10:32:17;101461.59;;;9.75;82.42
72612;BME280;60655;52.182;4.474;2023-04-06T10:34:19;101458.00;;;9.90;81.53
72612;BME280;60655;52.182;4.474;2023-04-06T10:36:25;101458.81;;;9.90;80.69
72612;BME280;60655;52.182;4.474;2023-04-06T10:38:36;101454.47;;;9.76;81.91
72612;BME280;60655;52.182;4.474;2023-04-06T10:40:39;101436.13;;;9.46;82.06
72612;BME280;60655;52.182;4.474;2023-04-06T10:42:40;101434.81;;;9.36;83.62
72612;BME280;60655;52.182;4.474;2023-04-06T10:44:44;101448.38;;;9.54;83.54
72612;BME280;60655;52.182;4.474;2023-04-06T10:46:56;101453.69;;;9.54;82.70
72612;BME280;60655;52.182;4.474;2023-04-06T10:49:08;101444.19;;;9.66;83.22